createdAt,value
2017-09-22T00:00:18.186Z,1014.03
2017-09-22T00:00:44.326Z,1014.06
2017-09-22T00:01:10.474Z,1014.03
2017-09-22T00:01:36.620Z,1014
2017-09-22T00:02:02.772Z,1013.98
2017-09-22T00:02:28.912Z,1013.98
2017-09-22T00:02:55.059Z,1013.99
2017-09-22T00:03:21.199Z,1013.98
2017-09-22T00:03:47.348Z,1014.02
2017-09-22T00:04:13.499Z,1013.99
2017-09-22T00:04:39.638Z,1014.02
2017-09-22T00:05:05.780Z,1014.06
2017-09-22T00:05:31.925Z,1014.04
2017-09-22T00:05:58.089Z,1014.01
2017-09-22T00:06:24.248Z,1014.01
2017-09-22T00:06:50.388Z,1014.06
2017-09-22T00:07:16.540Z,1014.06
2017-09-22T00:07:42.687Z,1014.04
2017-09-22T00:08:08.801Z,1014.05
2017-09-22T00:08:34.922Z,1014.08
2017-09-22T00:09:01.047Z,1014.06
2017-09-22T00:09:27.181Z,1014.11
2017-09-22T00:09:53.299Z,1014.05
2017-09-22T00:10:19.426Z,1014.07
2017-09-22T00:10:45.549Z,1014.04
2017-09-22T00:11:11.666Z,1014.04
2017-09-22T00:11:37.796Z,1014.02
2017-09-22T00:12:03.918Z,1014.02
2017-09-22T00:12:30.041Z,1014.06
2017-09-22T00:12:56.159Z,1014.01
2017-09-22T00:13:22.284Z,1014
2017-09-22T00:13:48.409Z,1013.96
2017-09-22T00:14:14.525Z,1013.98
2017-09-22T00:14:40.655Z,1014
2017-09-22T00:15:06.771Z,1013.98
2017-09-22T00:15:32.892Z,1013.97
2017-09-22T00:15:59.016Z,1013.99
2017-09-22T00:16:25.132Z,1013.96
2017-09-22T00:16:51.259Z,1013.97
2017-09-22T00:17:17.388Z,1013.96
2017-09-22T00:17:43.505Z,1013.95
2017-09-22T00:18:09.628Z,1013.95
2017-09-22T00:18:35.749Z,1013.93
2017-09-22T00:19:01.878Z,1013.93
2017-09-22T00:19:28.005Z,1013.96
2017-09-22T00:19:54.130Z,1013.92
2017-09-22T00:20:20.248Z,1013.94
2017-09-22T00:20:46.374Z,1013.9
2017-09-22T00:21:12.491Z,1013.92
2017-09-22T00:21:38.617Z,1013.93
2017-09-22T00:22:04.737Z,1013.91
2017-09-22T00:22:30.861Z,1013.91
2017-09-22T00:22:56.982Z,1013.92
2017-09-22T00:23:23.110Z,1013.93
2017-09-22T00:23:49.233Z,1013.92
2017-09-22T00:24:15.355Z,1013.93
2017-09-22T00:24:41.482Z,1013.94
2017-09-22T00:25:07.602Z,1013.93
2017-09-22T00:25:33.730Z,1013.96
2017-09-22T00:25:59.849Z,1013.96
2017-09-22T00:26:25.968Z,1013.93
2017-09-22T00:26:52.092Z,1013.93
2017-09-22T00:27:18.210Z,1013.94
2017-09-22T00:27:44.334Z,1013.94
2017-09-22T00:28:10.446Z,1013.93
2017-09-22T00:28:36.567Z,1013.94
2017-09-22T00:29:02.687Z,1013.91
2017-09-22T00:29:28.815Z,1013.91
2017-09-22T00:29:54.937Z,1013.92
2017-09-22T00:30:21.058Z,1013.93
2017-09-22T00:30:47.184Z,1013.93
2017-09-22T00:31:13.324Z,1013.93
2017-09-22T00:31:39.445Z,1013.93
2017-09-22T00:32:05.561Z,1013.92
2017-09-22T00:32:31.696Z,1013.91
2017-09-22T00:32:57.813Z,1013.89
2017-09-22T00:33:23.942Z,1013.89
2017-09-22T00:33:50.084Z,1013.93
2017-09-22T00:34:16.212Z,1013.88
2017-09-22T00:34:42.357Z,1013.9
2017-09-22T00:35:08.475Z,1013.95
2017-09-22T00:35:34.606Z,1013.89
2017-09-22T00:36:00.742Z,1013.93
2017-09-22T00:36:26.863Z,1013.91
2017-09-22T00:36:52.988Z,1013.91
2017-09-22T00:37:19.115Z,1013.9
2017-09-22T00:37:45.229Z,1013.9
2017-09-22T00:38:11.371Z,1013.92
2017-09-22T00:38:37.497Z,1013.89
2017-09-22T00:39:03.616Z,1013.92
2017-09-22T00:39:29.739Z,1013.93
2017-09-22T00:39:55.866Z,1013.88
2017-09-22T00:40:21.985Z,1013.91
2017-09-22T00:40:48.102Z,1013.92
2017-09-22T00:41:14.242Z,1013.92
2017-09-22T00:41:40.369Z,1013.91
2017-09-22T00:42:06.486Z,1013.9
2017-09-22T00:42:32.642Z,1013.92
2017-09-22T00:42:58.732Z,1013.94
2017-09-22T00:43:24.849Z,1013.91
2017-09-22T00:43:50.976Z,1013.89
2017-09-22T00:44:17.099Z,1013.9
2017-09-22T00:44:43.215Z,1013.89
2017-09-22T00:45:09.341Z,1013.9
2017-09-22T00:45:35.461Z,1013.91
2017-09-22T00:46:01.587Z,1013.89
2017-09-22T00:46:27.702Z,1013.89
2017-09-22T00:46:53.823Z,1013.9
2017-09-22T00:47:19.945Z,1013.84
2017-09-22T00:47:46.066Z,1013.87
2017-09-22T00:48:12.196Z,1013.83
2017-09-22T00:48:38.311Z,1013.87
2017-09-22T00:49:04.439Z,1013.85
2017-09-22T00:49:30.561Z,1013.85
2017-09-22T00:49:56.685Z,1013.82
2017-09-22T00:50:22.810Z,1013.79
2017-09-22T00:50:48.923Z,1013.79
2017-09-22T00:51:15.052Z,1013.79
2017-09-22T00:51:41.169Z,1013.82
2017-09-22T00:52:07.295Z,1013.8
2017-09-22T00:52:33.416Z,1013.82
2017-09-22T00:52:59.536Z,1013.82
2017-09-22T00:53:25.656Z,1013.8
2017-09-22T00:53:51.771Z,1013.83
2017-09-22T00:54:17.898Z,1013.82
2017-09-22T00:54:44.024Z,1013.81
2017-09-22T00:55:10.157Z,1013.81
2017-09-22T00:55:36.276Z,1013.81
2017-09-22T00:56:02.395Z,1013.82
2017-09-22T00:56:28.518Z,1013.82
2017-09-22T00:56:54.639Z,1013.81
2017-09-22T00:57:20.756Z,1013.83
2017-09-22T00:57:46.879Z,1013.79
2017-09-22T00:58:13.002Z,1013.83
2017-09-22T00:58:39.120Z,1013.81
2017-09-22T00:59:05.247Z,1013.79
2017-09-22T00:59:31.367Z,1013.82
2017-09-22T00:59:57.492Z,1013.82
2017-09-22T01:00:23.610Z,1013.8
2017-09-22T01:00:49.735Z,1013.79
2017-09-22T01:01:15.851Z,1013.8
2017-09-22T01:01:41.980Z,1013.81
2017-09-22T01:02:08.098Z,1013.83
2017-09-22T01:02:34.221Z,1013.82
2017-09-22T01:03:00.343Z,1013.78
2017-09-22T01:03:26.467Z,1013.81
2017-09-22T01:03:52.591Z,1013.81
2017-09-22T01:04:18.720Z,1013.82
2017-09-22T01:04:44.842Z,1013.83
2017-09-22T01:05:10.966Z,1013.79
2017-09-22T01:05:37.082Z,1013.77
2017-09-22T01:06:03.209Z,1013.8
2017-09-22T01:06:29.328Z,1013.77
2017-09-22T01:06:55.451Z,1013.8
2017-09-22T01:07:21.574Z,1013.81
2017-09-22T01:07:47.694Z,1013.79
2017-09-22T01:08:13.820Z,1013.79
2017-09-22T01:08:39.942Z,1013.8
2017-09-22T01:09:06.067Z,1013.77
2017-09-22T01:09:32.193Z,1013.76
2017-09-22T01:09:58.315Z,1013.77
2017-09-22T01:10:24.434Z,1013.75
2017-09-22T01:10:50.552Z,1013.77
2017-09-22T01:11:16.687Z,1013.78
2017-09-22T01:11:42.810Z,1013.75
2017-09-22T01:12:08.925Z,1013.77
2017-09-22T01:12:35.049Z,1013.78
2017-09-22T01:13:01.166Z,1013.77
2017-09-22T01:13:27.307Z,1013.75
2017-09-22T01:13:53.453Z,1013.76
2017-09-22T01:14:19.570Z,1013.74
2017-09-22T01:14:45.689Z,1013.74
2017-09-22T01:15:11.812Z,1013.72
2017-09-22T01:15:37.933Z,1013.74
2017-09-22T01:16:04.067Z,1013.74
2017-09-22T01:16:30.191Z,1013.7
2017-09-22T01:16:56.309Z,1013.73
2017-09-22T01:17:22.426Z,1013.7
2017-09-22T01:17:48.548Z,1013.65
2017-09-22T01:18:14.666Z,1013.71
2017-09-22T01:18:40.797Z,1013.68
2017-09-22T01:19:06.944Z,1013.7
2017-09-22T01:19:33.063Z,1013.69
2017-09-22T01:19:59.189Z,1013.67
2017-09-22T01:20:25.308Z,1013.66
2017-09-22T01:20:51.428Z,1013.71
2017-09-22T01:21:17.550Z,1013.66
2017-09-22T01:21:43.670Z,1013.67
2017-09-22T01:22:09.815Z,1013.66
2017-09-22T01:22:35.938Z,1013.68
2017-09-22T01:23:02.072Z,1013.67
2017-09-22T01:23:28.197Z,1013.65
2017-09-22T01:23:54.312Z,1013.7
2017-09-22T01:24:20.434Z,1013.68
2017-09-22T01:24:46.558Z,1013.65
2017-09-22T01:25:12.678Z,1013.64
2017-09-22T01:25:38.806Z,1013.66
2017-09-22T01:26:04.923Z,1013.63
2017-09-22T01:26:31.049Z,1013.65
2017-09-22T01:26:57.173Z,1013.65
2017-09-22T01:27:23.292Z,1013.64
2017-09-22T01:27:49.408Z,1013.64
2017-09-22T01:28:15.537Z,1013.6
2017-09-22T01:28:41.661Z,1013.62
2017-09-22T01:29:07.778Z,1013.63
2017-09-22T01:29:33.904Z,1013.6
2017-09-22T01:30:00.017Z,1013.64
2017-09-22T01:30:26.143Z,1013.61
2017-09-22T01:30:52.261Z,1013.65
2017-09-22T01:31:18.423Z,1013.6
2017-09-22T01:31:44.559Z,1013.57
2017-09-22T01:32:10.674Z,1013.6
2017-09-22T01:32:36.818Z,1013.62
2017-09-22T01:33:02.940Z,1013.61
2017-09-22T01:33:29.056Z,1013.6
2017-09-22T01:33:55.177Z,1013.58
2017-09-22T01:34:21.303Z,1013.62
2017-09-22T01:34:47.423Z,1013.6
2017-09-22T01:35:13.550Z,1013.58
2017-09-22T01:35:39.663Z,1013.59
2017-09-22T01:36:05.789Z,1013.6
2017-09-22T01:36:31.917Z,1013.56
2017-09-22T01:36:58.042Z,1013.58
2017-09-22T01:37:24.168Z,1013.54
2017-09-22T01:37:50.284Z,1013.55
2017-09-22T01:38:16.406Z,1013.54
2017-09-22T01:38:42.525Z,1013.52
2017-09-22T01:39:08.651Z,1013.53
2017-09-22T01:39:34.764Z,1013.5
2017-09-22T01:40:00.892Z,1013.53
2017-09-22T01:40:27.008Z,1013.54
2017-09-22T01:40:53.134Z,1013.53
2017-09-22T01:41:19.252Z,1013.51
2017-09-22T01:41:45.382Z,1013.5
2017-09-22T01:42:11.500Z,1013.51
2017-09-22T01:42:37.624Z,1013.53
2017-09-22T01:43:03.743Z,1013.51
2017-09-22T01:43:29.883Z,1013.48
2017-09-22T01:43:55.992Z,1013.51
2017-09-22T01:44:22.117Z,1013.49
2017-09-22T01:44:48.232Z,1013.51
2017-09-22T01:45:14.354Z,1013.51
2017-09-22T01:45:40.477Z,1013.51
2017-09-22T01:46:06.599Z,1013.52
2017-09-22T01:46:32.726Z,1013.53
2017-09-22T01:46:58.844Z,1013.52
2017-09-22T01:47:24.998Z,1013.48
2017-09-22T01:47:51.095Z,1013.5
2017-09-22T01:48:17.212Z,1013.52
2017-09-22T01:48:43.359Z,1013.52
2017-09-22T01:49:09.480Z,1013.48
2017-09-22T01:49:35.597Z,1013.51
2017-09-22T01:50:01.726Z,1013.49
2017-09-22T01:50:27.842Z,1013.43
2017-09-22T01:50:53.968Z,1013.46
2017-09-22T01:51:20.091Z,1013.47
2017-09-22T01:51:46.208Z,1013.44
2017-09-22T01:52:12.337Z,1013.46
2017-09-22T01:52:38.459Z,1013.49
2017-09-22T01:53:04.581Z,1013.46
2017-09-22T01:53:30.696Z,1013.46
2017-09-22T01:53:56.823Z,1013.44
2017-09-22T01:54:22.940Z,1013.43
2017-09-22T01:54:49.057Z,1013.43
2017-09-22T01:55:15.209Z,1013.45
2017-09-22T01:55:41.326Z,1013.4
2017-09-22T01:56:07.450Z,1013.45
2017-09-22T01:56:33.583Z,1013.45
2017-09-22T01:56:59.699Z,1013.43
2017-09-22T01:57:25.876Z,1013.45
2017-09-22T01:57:51.957Z,1013.44
2017-09-22T01:58:18.076Z,1013.45
2017-09-22T01:58:44.203Z,1013.47
2017-09-22T01:59:10.324Z,1013.44
2017-09-22T01:59:36.457Z,1013.46
2017-09-22T02:00:02.582Z,1013.47
2017-09-22T02:00:28.726Z,1013.49
2017-09-22T02:00:55.026Z,1013.49
2017-09-22T02:01:21.069Z,1013.45
2017-09-22T02:01:47.197Z,1013.5
2017-09-22T02:02:13.364Z,1013.5
2017-09-22T02:02:39.480Z,1013.47
2017-09-22T02:03:05.629Z,1013.52
2017-09-22T02:03:31.746Z,1013.49
2017-09-22T02:03:57.893Z,1013.49
2017-09-22T02:04:24.026Z,1013.48
2017-09-22T02:04:50.154Z,1013.51
2017-09-22T02:05:16.278Z,1013.47
2017-09-22T02:05:42.395Z,1013.51
2017-09-22T02:06:08.520Z,1013.5
2017-09-22T02:06:34.643Z,1013.51
2017-09-22T02:07:00.759Z,1013.51
2017-09-22T02:07:26.880Z,1013.52
2017-09-22T02:07:53.030Z,1013.53
2017-09-22T02:08:19.148Z,1013.53
2017-09-22T02:08:45.268Z,1013.53
2017-09-22T02:09:11.395Z,1013.51
2017-09-22T02:09:37.511Z,1013.53
2017-09-22T02:10:03.649Z,1013.5
2017-09-22T02:10:29.760Z,1013.54
2017-09-22T02:10:55.882Z,1013.51
2017-09-22T02:11:22.009Z,1013.5
2017-09-22T02:11:48.124Z,1013.49
2017-09-22T02:12:14.249Z,1013.56
2017-09-22T02:12:40.365Z,1013.56
2017-09-22T02:13:06.493Z,1013.56
2017-09-22T02:13:32.628Z,1013.57
2017-09-22T02:13:58.745Z,1013.55
2017-09-22T02:14:24.872Z,1013.53
2017-09-22T02:14:50.996Z,1013.55
2017-09-22T02:15:17.117Z,1013.54
2017-09-22T02:15:43.244Z,1013.57
2017-09-22T02:16:09.364Z,1013.56
2017-09-22T02:16:35.483Z,1013.55
2017-09-22T02:17:01.602Z,1013.52
2017-09-22T02:17:27.743Z,1013.56
2017-09-22T02:17:53.858Z,1013.53
2017-09-22T02:18:19.984Z,1013.55
2017-09-22T02:18:46.103Z,1013.55
2017-09-22T02:19:12.242Z,1013.54
2017-09-22T02:19:38.366Z,1013.56
2017-09-22T02:20:04.484Z,1013.55
2017-09-22T02:20:30.627Z,1013.53
2017-09-22T02:20:56.746Z,1013.54
2017-09-22T02:21:22.885Z,1013.53
2017-09-22T02:21:49.002Z,1013.5
2017-09-22T02:22:15.121Z,1013.52
2017-09-22T02:22:41.242Z,1013.49
2017-09-22T02:23:07.358Z,1013.51
2017-09-22T02:23:33.485Z,1013.52
2017-09-22T02:23:59.603Z,1013.46
2017-09-22T02:24:25.729Z,1013.46
2017-09-22T02:24:51.848Z,1013.48
2017-09-22T02:25:17.970Z,1013.48
2017-09-22T02:25:44.086Z,1013.48
2017-09-22T02:26:10.213Z,1013.51
2017-09-22T02:26:36.332Z,1013.5
2017-09-22T02:27:02.454Z,1013.46
2017-09-22T02:27:28.574Z,1013.5
2017-09-22T02:27:54.687Z,1013.5
2017-09-22T02:28:20.815Z,1013.48
2017-09-22T02:28:46.928Z,1013.49
2017-09-22T02:29:13.053Z,1013.53
2017-09-22T02:29:39.175Z,1013.52
2017-09-22T02:30:05.293Z,1013.51
2017-09-22T02:30:31.423Z,1013.52
2017-09-22T02:30:57.533Z,1013.5
2017-09-22T02:31:23.652Z,1013.51
2017-09-22T02:31:49.777Z,1013.51
2017-09-22T02:32:15.896Z,1013.48
2017-09-22T02:32:42.020Z,1013.5
2017-09-22T02:33:08.134Z,1013.48
2017-09-22T02:33:34.259Z,1013.51
2017-09-22T02:34:00.381Z,1013.54
2017-09-22T02:34:26.504Z,1013.51
2017-09-22T02:34:52.624Z,1013.5
2017-09-22T02:35:18.740Z,1013.51
2017-09-22T02:35:44.864Z,1013.49
2017-09-22T02:36:10.983Z,1013.49
2017-09-22T02:36:37.111Z,1013.52
2017-09-22T02:37:03.246Z,1013.5
2017-09-22T02:37:29.368Z,1013.49
2017-09-22T02:37:55.491Z,1013.48
2017-09-22T02:38:21.612Z,1013.47
2017-09-22T02:38:47.727Z,1013.48
2017-09-22T02:39:13.854Z,1013.45
2017-09-22T02:39:39.970Z,1013.48
2017-09-22T02:40:06.088Z,1013.46
2017-09-22T02:40:32.220Z,1013.41
2017-09-22T02:40:58.337Z,1013.43
2017-09-22T02:41:24.465Z,1013.45
2017-09-22T02:41:50.579Z,1013.44
2017-09-22T02:42:16.697Z,1013.43
2017-09-22T02:42:42.821Z,1013.46
2017-09-22T02:43:08.944Z,1013.45
2017-09-22T02:43:35.058Z,1013.43
2017-09-22T02:44:01.183Z,1013.45
2017-09-22T02:44:27.323Z,1013.46
2017-09-22T02:44:53.448Z,1013.46
2017-09-22T02:45:19.563Z,1013.44
2017-09-22T02:45:45.691Z,1013.44
2017-09-22T02:46:11.815Z,1013.41
2017-09-22T02:46:37.929Z,1013.47
2017-09-22T02:47:04.056Z,1013.45
2017-09-22T02:47:30.167Z,1013.44
2017-09-22T02:47:56.285Z,1013.45
2017-09-22T02:48:22.409Z,1013.44
2017-09-22T02:48:48.535Z,1013.44
2017-09-22T02:49:14.654Z,1013.46
2017-09-22T02:49:40.776Z,1013.45
2017-09-22T02:50:06.895Z,1013.43
2017-09-22T02:50:33.038Z,1013.43
2017-09-22T02:50:59.154Z,1013.45
2017-09-22T02:51:25.280Z,1013.43
2017-09-22T02:51:51.416Z,1013.43
2017-09-22T02:52:17.541Z,1013.45
2017-09-22T02:52:43.675Z,1013.43
2017-09-22T02:53:09.800Z,1013.48
2017-09-22T02:53:35.917Z,1013.45
2017-09-22T02:54:02.063Z,1013.44
2017-09-22T02:54:28.201Z,1013.44
2017-09-22T02:54:54.305Z,1013.44
2017-09-22T02:55:20.425Z,1013.42
2017-09-22T02:55:46.543Z,1013.45
2017-09-22T02:56:12.670Z,1013.46
2017-09-22T02:56:38.794Z,1013.44
2017-09-22T02:57:04.912Z,1013.47
2017-09-22T02:57:31.036Z,1013.46
2017-09-22T02:57:57.150Z,1013.48
2017-09-22T02:58:23.285Z,1013.49
2017-09-22T02:58:49.410Z,1013.47
2017-09-22T02:59:15.528Z,1013.44
2017-09-22T02:59:41.680Z,1013.49
2017-09-22T03:00:07.798Z,1013.48
2017-09-22T03:00:33.917Z,1013.45
2017-09-22T03:01:00.049Z,1013.44
2017-09-22T03:01:26.180Z,1013.48
2017-09-22T03:01:52.305Z,1013.41
2017-09-22T03:02:18.428Z,1013.42
2017-09-22T03:02:44.543Z,1013.43
2017-09-22T03:03:10.667Z,1013.42
2017-09-22T03:03:36.790Z,1013.43
2017-09-22T03:04:02.906Z,1013.43
2017-09-22T03:04:29.027Z,1013.42
2017-09-22T03:04:55.150Z,1013.42
2017-09-22T03:05:21.265Z,1013.4
2017-09-22T03:05:47.392Z,1013.38
2017-09-22T03:06:13.515Z,1013.42
2017-09-22T03:06:39.636Z,1013.38
2017-09-22T03:07:05.752Z,1013.38
2017-09-22T03:07:31.876Z,1013.43
2017-09-22T03:07:57.999Z,1013.38
2017-09-22T03:08:24.114Z,1013.38
2017-09-22T03:08:50.239Z,1013.37
2017-09-22T03:09:16.360Z,1013.36
2017-09-22T03:09:42.481Z,1013.37
2017-09-22T03:10:08.597Z,1013.35
2017-09-22T03:10:34.717Z,1013.39
2017-09-22T03:11:00.842Z,1013.39
2017-09-22T03:11:26.961Z,1013.42
2017-09-22T03:11:53.083Z,1013.38
2017-09-22T03:12:19.201Z,1013.37
2017-09-22T03:12:45.324Z,1013.32
2017-09-22T03:13:11.458Z,1013.37
2017-09-22T03:13:37.586Z,1013.37
2017-09-22T03:14:03.714Z,1013.37
2017-09-22T03:14:29.833Z,1013.35
2017-09-22T03:14:55.946Z,1013.32
2017-09-22T03:15:22.066Z,1013.35
2017-09-22T03:15:48.188Z,1013.37
2017-09-22T03:16:14.311Z,1013.34
2017-09-22T03:16:40.448Z,1013.35
2017-09-22T03:17:06.572Z,1013.32
2017-09-22T03:17:32.686Z,1013.36
2017-09-22T03:17:58.817Z,1013.33
2017-09-22T03:18:24.934Z,1013.33
2017-09-22T03:18:51.060Z,1013.34
2017-09-22T03:19:17.176Z,1013.33
2017-09-22T03:19:43.290Z,1013.33
2017-09-22T03:20:09.418Z,1013.37
2017-09-22T03:20:35.535Z,1013.36
2017-09-22T03:21:01.662Z,1013.37
2017-09-22T03:21:27.778Z,1013.32
2017-09-22T03:21:53.922Z,1013.34
2017-09-22T03:22:20.061Z,1013.34
2017-09-22T03:22:46.209Z,1013.36
2017-09-22T03:23:12.329Z,1013.35
2017-09-22T03:23:38.451Z,1013.37
2017-09-22T03:24:04.566Z,1013.38
2017-09-22T03:24:30.686Z,1013.36
2017-09-22T03:24:56.812Z,1013.34
2017-09-22T03:25:22.931Z,1013.38
2017-09-22T03:25:49.049Z,1013.33
2017-09-22T03:26:15.167Z,1013.37
2017-09-22T03:26:41.313Z,1013.34
2017-09-22T03:27:07.430Z,1013.37
2017-09-22T03:27:33.561Z,1013.34
2017-09-22T03:27:59.703Z,1013.37
2017-09-22T03:28:25.824Z,1013.37
2017-09-22T03:28:51.943Z,1013.39
2017-09-22T03:29:18.057Z,1013.37
2017-09-22T03:29:44.183Z,1013.38
2017-09-22T03:30:10.301Z,1013.38
2017-09-22T03:30:36.421Z,1013.38
2017-09-22T03:31:02.546Z,1013.37
2017-09-22T03:31:28.659Z,1013.36
2017-09-22T03:31:54.783Z,1013.37
2017-09-22T03:32:20.907Z,1013.4
2017-09-22T03:32:47.026Z,1013.4
2017-09-22T03:33:13.140Z,1013.38
2017-09-22T03:33:39.259Z,1013.42
2017-09-22T03:34:05.422Z,1013.42
2017-09-22T03:34:31.524Z,1013.39
2017-09-22T03:34:57.646Z,1013.39
2017-09-22T03:35:23.762Z,1013.39
2017-09-22T03:35:49.885Z,1013.41
2017-09-22T03:36:16.005Z,1013.38
2017-09-22T03:36:42.126Z,1013.4
2017-09-22T03:37:08.266Z,1013.41
2017-09-22T03:37:34.415Z,1013.43
2017-09-22T03:38:00.534Z,1013.42
2017-09-22T03:38:26.651Z,1013.42
2017-09-22T03:38:52.781Z,1013.41
2017-09-22T03:39:18.898Z,1013.4
2017-09-22T03:39:45.019Z,1013.4
2017-09-22T03:40:11.136Z,1013.4
2017-09-22T03:40:37.256Z,1013.39
2017-09-22T03:41:03.375Z,1013.4
2017-09-22T03:41:29.508Z,1013.39
2017-09-22T03:41:55.624Z,1013.38
2017-09-22T03:42:21.742Z,1013.39
2017-09-22T03:42:47.863Z,1013.38
2017-09-22T03:43:13.983Z,1013.36
2017-09-22T03:43:40.108Z,1013.36
2017-09-22T03:44:06.224Z,1013.36
2017-09-22T03:44:32.376Z,1013.4
2017-09-22T03:44:58.462Z,1013.41
2017-09-22T03:45:24.582Z,1013.38
2017-09-22T03:45:50.706Z,1013.35
2017-09-22T03:46:16.823Z,1013.36
2017-09-22T03:46:42.942Z,1013.38
2017-09-22T03:47:09.068Z,1013.38
2017-09-22T03:47:35.189Z,1013.37
2017-09-22T03:48:01.304Z,1013.4
2017-09-22T03:48:27.426Z,1013.37
2017-09-22T03:48:53.554Z,1013.37
2017-09-22T03:49:19.692Z,1013.36
2017-09-22T03:49:45.813Z,1013.41
2017-09-22T03:50:11.931Z,1013.38
2017-09-22T03:50:38.049Z,1013.4
2017-09-22T03:51:04.176Z,1013.35
2017-09-22T03:51:30.292Z,1013.36
2017-09-22T03:51:56.418Z,1013.36
2017-09-22T03:52:22.541Z,1013.38
2017-09-22T03:52:48.658Z,1013.39
2017-09-22T03:53:14.782Z,1013.34
2017-09-22T03:53:40.897Z,1013.38
2017-09-22T03:54:07.017Z,1013.39
2017-09-22T03:54:33.145Z,1013.4
2017-09-22T03:54:59.270Z,1013.38
2017-09-22T03:55:25.387Z,1013.36
2017-09-22T03:55:51.512Z,1013.39
2017-09-22T03:56:17.633Z,1013.4
2017-09-22T03:56:43.746Z,1013.42
2017-09-22T03:57:09.878Z,1013.44
2017-09-22T03:57:35.991Z,1013.43
2017-09-22T03:58:02.108Z,1013.39
2017-09-22T03:58:28.236Z,1013.37
2017-09-22T03:58:54.356Z,1013.38
2017-09-22T03:59:20.481Z,1013.41
2017-09-22T03:59:46.596Z,1013.36
2017-09-22T04:00:12.717Z,1013.38
2017-09-22T04:00:38.831Z,1013.39
2017-09-22T04:01:04.958Z,1013.4
2017-09-22T04:01:31.070Z,1013.39
2017-09-22T04:01:57.218Z,1013.37
2017-09-22T04:02:23.347Z,1013.36
2017-09-22T04:02:49.465Z,1013.39
2017-09-22T04:03:15.593Z,1013.39
2017-09-22T04:03:41.714Z,1013.35
2017-09-22T04:04:07.832Z,1013.35
2017-09-22T04:04:33.951Z,1013.4
2017-09-22T04:05:00.066Z,1013.39
2017-09-22T04:05:26.186Z,1013.35
2017-09-22T04:05:52.305Z,1013.4
2017-09-22T04:06:18.436Z,1013.39
2017-09-22T04:06:44.556Z,1013.39
2017-09-22T04:07:10.683Z,1013.38
2017-09-22T04:07:36.798Z,1013.42
2017-09-22T04:08:02.917Z,1013.41
2017-09-22T04:08:29.044Z,1013.43
2017-09-22T04:08:55.167Z,1013.39
2017-09-22T04:09:21.285Z,1013.41
2017-09-22T04:09:47.402Z,1013.46
2017-09-22T04:10:13.526Z,1013.43
2017-09-22T04:10:39.647Z,1013.43
2017-09-22T04:11:05.772Z,1013.43
2017-09-22T04:11:31.890Z,1013.45
2017-09-22T04:11:58.011Z,1013.43
2017-09-22T04:12:24.135Z,1013.41
2017-09-22T04:12:50.253Z,1013.41
2017-09-22T04:13:16.373Z,1013.43
2017-09-22T04:13:42.522Z,1013.44
2017-09-22T04:14:08.642Z,1013.41
2017-09-22T04:14:34.766Z,1013.41
2017-09-22T04:15:00.885Z,1013.4
2017-09-22T04:15:27.005Z,1013.41
2017-09-22T04:15:53.124Z,1013.38
2017-09-22T04:16:19.250Z,1013.44
2017-09-22T04:16:45.365Z,1013.37
2017-09-22T04:17:11.485Z,1013.39
2017-09-22T04:17:37.614Z,1013.4
2017-09-22T04:18:03.729Z,1013.41
2017-09-22T04:18:29.845Z,1013.41
2017-09-22T04:18:55.965Z,1013.39
2017-09-22T04:19:22.084Z,1013.41
2017-09-22T04:19:48.212Z,1013.41
2017-09-22T04:20:14.331Z,1013.42
2017-09-22T04:20:40.449Z,1013.46
2017-09-22T04:21:06.570Z,1013.4
2017-09-22T04:21:32.693Z,1013.44
2017-09-22T04:21:58.807Z,1013.41
2017-09-22T04:22:24.937Z,1013.41
2017-09-22T04:22:51.062Z,1013.43
2017-09-22T04:23:17.181Z,1013.42
2017-09-22T04:23:43.326Z,1013.42
2017-09-22T04:24:09.449Z,1013.43
2017-09-22T04:24:35.569Z,1013.44
2017-09-22T04:25:01.696Z,1013.4
2017-09-22T04:25:27.814Z,1013.38
2017-09-22T04:25:53.926Z,1013.4
2017-09-22T04:26:20.046Z,1013.4
2017-09-22T04:26:46.172Z,1013.37
2017-09-22T04:27:12.283Z,1013.42
2017-09-22T04:27:38.411Z,1013.38
2017-09-22T04:28:04.525Z,1013.4
2017-09-22T04:28:30.652Z,1013.44
2017-09-22T04:28:56.767Z,1013.41
2017-09-22T04:29:22.893Z,1013.46
2017-09-22T04:29:49.010Z,1013.44
2017-09-22T04:30:15.139Z,1013.39
2017-09-22T04:30:41.255Z,1013.39
2017-09-22T04:31:07.397Z,1013.4
2017-09-22T04:31:33.525Z,1013.45
2017-09-22T04:31:59.664Z,1013.38
2017-09-22T04:32:25.790Z,1013.42
2017-09-22T04:32:51.910Z,1013.44
2017-09-22T04:33:18.025Z,1013.44
2017-09-22T04:33:44.147Z,1013.46
2017-09-22T04:34:10.268Z,1013.46
2017-09-22T04:34:36.394Z,1013.46
2017-09-22T04:35:02.512Z,1013.51
2017-09-22T04:35:28.638Z,1013.44
2017-09-22T04:35:54.755Z,1013.46
2017-09-22T04:36:20.880Z,1013.49
2017-09-22T04:36:47.003Z,1013.51
2017-09-22T04:37:13.119Z,1013.49
2017-09-22T04:37:39.238Z,1013.51
2017-09-22T04:38:05.362Z,1013.47
2017-09-22T04:38:31.485Z,1013.49
2017-09-22T04:38:57.601Z,1013.48
2017-09-22T04:39:23.723Z,1013.5
2017-09-22T04:39:49.844Z,1013.47
2017-09-22T04:40:15.981Z,1013.49
2017-09-22T04:40:42.100Z,1013.49
2017-09-22T04:41:08.225Z,1013.49
2017-09-22T04:41:34.340Z,1013.49
2017-09-22T04:42:00.463Z,1013.51
2017-09-22T04:42:26.585Z,1013.51
2017-09-22T04:42:52.702Z,1013.5
2017-09-22T04:43:18.823Z,1013.5
2017-09-22T04:43:44.966Z,1013.51
2017-09-22T04:44:11.084Z,1013.47
2017-09-22T04:44:37.205Z,1013.49
2017-09-22T04:45:03.329Z,1013.48
2017-09-22T04:45:29.447Z,1013.44
2017-09-22T04:45:55.565Z,1013.46
2017-09-22T04:46:21.716Z,1013.47
2017-09-22T04:46:47.834Z,1013.49
2017-09-22T04:47:13.956Z,1013.5
2017-09-22T04:47:40.075Z,1013.47
2017-09-22T04:48:06.193Z,1013.46
2017-09-22T04:48:32.316Z,1013.45
2017-09-22T04:48:58.433Z,1013.46
2017-09-22T04:49:24.556Z,1013.47
2017-09-22T04:49:50.674Z,1013.46
2017-09-22T04:50:16.792Z,1013.48
2017-09-22T04:50:42.914Z,1013.49
2017-09-22T04:51:09.030Z,1013.49
2017-09-22T04:51:35.173Z,1013.55
2017-09-22T04:52:01.300Z,1013.52
2017-09-22T04:52:27.421Z,1013.52
2017-09-22T04:52:53.537Z,1013.53
2017-09-22T04:53:19.665Z,1013.54
2017-09-22T04:53:45.783Z,1013.52
2017-09-22T04:54:11.900Z,1013.59
2017-09-22T04:54:38.044Z,1013.54
2017-09-22T04:55:04.165Z,1013.57
2017-09-22T04:55:30.291Z,1013.55
2017-09-22T04:55:56.414Z,1013.57
2017-09-22T04:56:22.532Z,1013.57
2017-09-22T04:56:48.678Z,1013.57
2017-09-22T04:57:14.813Z,1013.56
2017-09-22T04:57:40.935Z,1013.58
2017-09-22T04:58:07.055Z,1013.58
2017-09-22T04:58:33.197Z,1013.57
2017-09-22T04:58:59.319Z,1013.55
2017-09-22T04:59:25.441Z,1013.55
2017-09-22T04:59:51.556Z,1013.57
2017-09-22T05:00:17.685Z,1013.57
2017-09-22T05:00:43.797Z,1013.57
2017-09-22T05:01:09.916Z,1013.57
2017-09-22T05:01:36.040Z,1013.57
2017-09-22T05:02:02.159Z,1013.55
2017-09-22T05:02:28.281Z,1013.59
2017-09-22T05:02:54.419Z,1013.6
2017-09-22T05:03:20.540Z,1013.58
2017-09-22T05:03:46.678Z,1013.61
2017-09-22T05:04:12.794Z,1013.58
2017-09-22T05:04:38.917Z,1013.56
2017-09-22T05:05:05.035Z,1013.61
2017-09-22T05:05:31.160Z,1013.57
2017-09-22T05:05:57.299Z,1013.58
2017-09-22T05:06:23.432Z,1013.56
2017-09-22T05:06:49.546Z,1013.58
2017-09-22T05:07:15.683Z,1013.56
2017-09-22T05:07:41.810Z,1013.56
2017-09-22T05:08:07.925Z,1013.58
2017-09-22T05:08:34.040Z,1013.59
2017-09-22T05:09:00.168Z,1013.58
2017-09-22T05:09:26.284Z,1013.54
2017-09-22T05:09:52.401Z,1013.55
2017-09-22T05:10:18.519Z,1013.62
2017-09-22T05:10:44.638Z,1013.55
2017-09-22T05:11:10.770Z,1013.58
2017-09-22T05:11:36.892Z,1013.57
2017-09-22T05:12:03.010Z,1013.56
2017-09-22T05:12:29.126Z,1013.59
2017-09-22T05:12:55.246Z,1013.57
2017-09-22T05:13:21.364Z,1013.56
2017-09-22T05:13:47.486Z,1013.56
2017-09-22T05:14:13.609Z,1013.59
2017-09-22T05:14:39.729Z,1013.58
2017-09-22T05:15:05.859Z,1013.61
2017-09-22T05:15:31.973Z,1013.6
2017-09-22T05:15:58.089Z,1013.58
2017-09-22T05:16:24.211Z,1013.62
2017-09-22T05:16:50.333Z,1013.59
2017-09-22T05:17:16.468Z,1013.59